sensor_id;sensor_type;location;lat;lon;timestamp;P1;durP1;ratioP1;P2;durP2;ratioP2
40555;SDS011;26250;45.422;11.100;2022-10-30T08:04:04;38.38;;;26.92;;
40555;SDS011;26250;45.422;11.100;2022-10-30T08:06:31;38.78;;;26.55;;
40555;SDS011;26250;45.422;11.100;2022-10-30T08:08:58;42.03;;;26.02;;
40555;SDS011;26250;45.422;11.100;2022-10-30T08:11:26;39.50;;;26.98;;
40555;SDS011;26250;45.422;11.100;2022-10-30T08:13:55;35.72;;;25.30;;
40555;SDS011;26250;45.422;11.100;2022-10-30T08:16:22;38.60;;;25.10;;
40555;SDS011;26250;45.422;11.100;2022-10-30T08:18:52;30.45;;;24.33;;
40555;SDS011;26250;45.422;11.100;2022-10-30T08:21:23;37.78;;;24.38;;
40555;SDS011;26250;45.422;11.100;2022-10-30T08:24:06;32.50;;;25.65;;
40555;SDS011;26250;45.422;11.100;2022-10-30T08:26:33;29.35;;;22.13;;
40555;SDS011;26250;45.422;11.100;2022-10-30T08:29:01;33.45;;;23.55;;
40555;SDS011;26250;45.422;11.100;2022-10-30T08:31:29;31.60;;;24.30;;
40555;SDS011;26250;45.422;11.100;2022-10-30T08:34:02;38.42;;;23.63;;
40555;SDS011;26250;45.422;11.100;2022-10-30T08:36:56;30.25;;;23.80;;
40555;SDS011;26250;45.422;11.100;2022-10-30T08:39:27;27.13;;;22.73;;
40555;SDS011;26250;45.422;11.100;2022-10-30T08:42:14;43.88;;;24.25;;
40555;SDS011;26250;45.422;11.100;2022-10-30T08:44:42;35.33;;;26.33;;
40555;SDS011;26250;45.422;11.100;2022-10-30T08:47:12;45.35;;;25.45;;
40555;SDS011;26250;45.422;11.100;2022-10-30T08:49:39;39.30;;;27.15;;
40555;SDS011;26250;45.422;11.100;2022-10-30T08:52:08;48.22;;;27.90;;
40555;SDS011;26250;45.422;11.100;2022-10-30T08:54:35;48.75;;;34.83;;
40555;SDS011;26250;45.422;11.100;2022-10-30T08:57:02;47.55;;;31.02;;
40555;SDS011;26250;45.422;11.100;2022-10-30T08:59:30;47.97;;;30.17;;
40555;SDS011;26250;45.422;11.100;2022-10-30T09:01:58;43.22;;;32.35;;
40555;SDS011;26250;45.422;11.100;2022-10-30T09:04:48;49.20;;;37.38;;
40555;SDS011;26250;45.422;11.100;2022-10-30T09:07:53;63.33;;;36.17;;
40555;SDS011;26250;45.422;11.100;2022-10-30T09:10:45;54.03;;;36.55;;
40555;SDS011;26250;45.422;11.100;2022-10-30T09:13:12;49.60;;;35.42;;
40555;SDS011;26250;45.422;11.100;2022-10-30T09:15:39;46.15;;;35.92;;
40555;SDS011;26250;45.422;11.100;2022-10-30T09:18:06;55.53;;;38.00;;
40555;SDS011;26250;45.422;11.100;2022-10-30T18:31:34;28.48;;;18.63;;
40555;SDS011;26250;45.422;11.100;2022-10-30T18:34:01;34.63;;;17.35;;
40555;SDS011;26250;45.422;11.100;2022-10-30T18:36:29;33.85;;;18.50;;
40555;SDS011;26250;45.422;11.100;2022-10-30T18:38:56;37.38;;;18.67;;
40555;SDS011;26250;45.422;11.100;2022-10-30T18:41:27;34.70;;;19.95;;
40555;SDS011;26250;45.422;11.100;2022-10-30T18:43:57;41.17;;;19.30;;
40555;SDS011;26250;45.422;11.100;2022-10-30T18:46:26;36.30;;;19.60;;
40555;SDS011;26250;45.422;11.100;2022-10-30T18:48:55;28.05;;;18.30;;
40555;SDS011;26250;45.422;11.100;2022-10-30T18:51:23;36.38;;;20.20;;
40555;SDS011;26250;45.422;11.100;2022-10-30T18:53:52;38.10;;;19.50;;
40555;SDS011;26250;45.422;11.100;2022-10-30T18:56:22;27.15;;;17.83;;
40555;SDS011;26250;45.422;11.100;2022-10-30T18:58:52;35.55;;;21.17;;
40555;SDS011;26250;45.422;11.100;2022-10-30T19:01:27;49.75;;;21.90;;
40555;SDS011;26250;45.422;11.100;2022-10-30T19:03:56;31.27;;;18.10;;
40555;SDS011;26250;45.422;11.100;2022-10-30T19:06:28;34.17;;;18.57;;
40555;SDS011;26250;45.422;11.100;2022-10-30T19:08:55;40.20;;;19.08;;
40555;SDS011;26250;45.422;11.100;2022-10-30T19:11:22;64.20;;;19.73;;
40555;SDS011;26250;45.422;11.100;2022-10-30T19:13:51;30.92;;;17.30;;
40555;SDS011;26250;45.422;11.100;2022-10-30T19:16:19;40.67;;;19.02;;
40555;SDS011;26250;45.422;11.100;2022-10-30T19:18:46;32.65;;;19.95;;
40555;SDS011;26250;45.422;11.100;2022-10-30T19:21:21;29.13;;;19.40;;
40555;SDS011;26250;45.422;11.100;2022-10-30T19:23:50;40.10;;;18.70;;
40555;SDS011;26250;45.422;11.100;2022-10-30T19:26:18;31.75;;;19.92;;
40555;SDS011;26250;45.422;11.100;2022-10-30T19:28:45;42.28;;;21.25;;
40555;SDS011;26250;45.422;11.100;2022-10-30T19:31:12;32.60;;;20.50;;
40555;SDS011;26250;45.422;11.100;2022-10-30T19:33:40;30.35;;;18.45;;
40555;SDS011;26250;45.422;11.100;2022-10-30T19:38:59;29.58;;;20.33;;
40555;SDS011;26250;45.422;11.100;2022-10-30T19:41:34;37.63;;;23.60;;
40555;SDS011;26250;45.422;11.100;2022-10-30T19:44:05;28.42;;;20.95;;
40555;SDS011;26250;45.422;11.100;2022-10-30T19:46:32;41.35;;;21.23;;
40555;SDS011;26250;45.422;11.100;2022-10-30T19:48:59;45.25;;;21.05;;
40555;SDS011;26250;45.422;11.100;2022-10-30T19:51:37;42.08;;;21.10;;
40555;SDS011;26250;45.422;11.100;2022-10-30T19:54:04;31.35;;;21.13;;
40555;SDS011;26250;45.422;11.100;2022-10-30T19:56:31;41.10;;;21.92;;
40555;SDS011;26250;45.422;11.100;2022-10-30T19:58:58;34.03;;;20.80;;
40555;SDS011;26250;45.422;11.100;2022-10-30T20:01:24;36.50;;;21.15;;
40555;SDS011;26250;45.422;11.100;2022-10-30T20:03:51;37.10;;;20.67;;
40555;SDS011;26250;45.422;11.100;2022-10-30T20:06:18;34.97;;;20.50;;
40555;SDS011;26250;45.422;11.100;2022-10-30T20:08:49;30.98;;;20.83;;
40555;SDS011;26250;45.422;11.100;2022-10-30T20:11:16;35.95;;;20.88;;
40555;SDS011;26250;45.422;11.100;2022-10-30T20:13:43;36.45;;;21.27;;
40555;SDS011;26250;45.422;11.100;2022-10-30T20:16:11;34.47;;;20.63;;
40555;SDS011;26250;45.422;11.100;2022-10-30T20:18:38;35.88;;;20.73;;
40555;SDS011;26250;45.422;11.100;2022-10-30T20:21:06;42.20;;;21.52;;
40555;SDS011;26250;45.422;11.100;2022-10-30T20:23:36;32.35;;;21.10;;
40555;SDS011;26250;45.422;11.100;2022-10-30T20:26:04;49.53;;;20.77;;
40555;SDS011;26250;45.422;11.100;2022-10-30T20:28:36;32.95;;;22.17;;
40555;SDS011;26250;45.422;11.100;2022-10-30T20:31:09;40.75;;;21.50;;
40555;SDS011;26250;45.422;11.100;2022-10-30T20:33:37;29.70;;;22.05;;
40555;SDS011;26250;45.422;11.100;2022-10-30T20:36:04;34.47;;;21.20;;
40555;SDS011;26250;45.422;11.100;2022-10-30T20:38:32;30.95;;;21.52;;
40555;SDS011;26250;45.422;11.100;2022-10-30T20:41:00;35.20;;;21.98;;
40555;SDS011;26250;45.422;11.100;2022-10-30T20:45:58;33.30;;;21.83;;
40555;SDS011;26250;45.422;11.100;2022-10-30T20:48:26;41.50;;;23.13;;
40555;SDS011;26250;45.422;11.100;2022-10-30T20:50:54;49.03;;;24.27;;
40555;SDS011;26250;45.422;11.100;2022-10-30T20:53:23;47.83;;;21.30;;
40555;SDS011;26250;45.422;11.100;2022-10-30T20:55:50;34.83;;;23.15;;
40555;SDS011;26250;45.422;11.100;2022-10-30T20:58:17;33.30;;;22.10;;
40555;SDS011;26250;45.422;11.100;2022-10-30T21:00:44;36.30;;;20.75;;
40555;SDS011;26250;45.422;11.100;2022-10-30T21:03:11;43.47;;;24.02;;
40555;SDS011;26250;45.422;11.100;2022-10-30T21:05:42;34.05;;;21.38;;
40555;SDS011;26250;45.422;11.100;2022-10-30T21:08:14;36.38;;;24.70;;
40555;SDS011;26250;45.422;11.100;2022-10-30T21:10:41;47.85;;;25.70;;
40555;SDS011;26250;45.422;11.100;2022-10-30T21:13:08;43.95;;;25.55;;
40555;SDS011;26250;45.422;11.100;2022-10-30T21:15:40;47.95;;;25.33;;
40555;SDS011;26250;45.422;11.100;2022-10-30T21:18:08;36.78;;;24.40;;
40555;SDS011;26250;45.422;11.100;2022-10-30T21:20:37;36.50;;;23.55;;
40555;SDS011;26250;45.422;11.100;2022-10-30T21:23:06;53.00;;;24.98;;
40555;SDS011;26250;45.422;11.100;2022-10-30T21:25:33;42.13;;;25.15;;
40555;SDS011;26250;45.422;11.100;2022-10-30T21:28:02;50.65;;;24.90;;
40555;SDS011;26250;45.422;11.100;2022-10-30T21:30:29;34.20;;;23.90;;
40555;SDS011;26250;45.422;11.100;2022-10-30T21:32:56;44.63;;;23.17;;
40555;SDS011;26250;45.422;11.100;2022-10-30T21:35:24;33.25;;;22.92;;
40555;SDS011;26250;45.422;11.100;2022-10-30T21:37:51;39.00;;;22.95;;
40555;SDS011;26250;45.422;11.100;2022-10-30T21:40:18;44.60;;;23.98;;
40555;SDS011;26250;45.422;11.100;2022-10-30T21:42:48;56.65;;;25.10;;
40555;SDS011;26250;45.422;11.100;2022-10-30T21:45:15;39.78;;;24.27;;
40555;SDS011;26250;45.422;11.100;2022-10-30T21:47:44;42.97;;;26.35;;
40555;SDS011;26250;45.422;11.100;2022-10-30T21:50:11;41.10;;;24.00;;
40555;SDS011;26250;45.422;11.100;2022-10-30T21:52:38;40.80;;;23.77;;
40555;SDS011;26250;45.422;11.100;2022-10-30T21:55:06;38.85;;;23.80;;
40555;SDS011;26250;45.422;11.100;2022-10-30T21:57:33;41.90;;;25.65;;
40555;SDS011;26250;45.422;11.100;2022-10-30T22:00:00;54.45;;;27.42;;
